Time;durP1;ratioP1;P1;durP2;ratioP2;P2;SDS_P1;SDS_P2;PMS_P1;PMS_P2;Temp;Humidity;BMP_temperature;BMP_pressure;BME280_temperature;BME280_humidity;BME280_pressure;Samples;Min_cycle;Max_cycle;Signal;HPM_P1;HPM_P2
2022/08/02 00:00:06;;;;;;;2.47;1.90;;;21.50;99.90;;;;;;4994632;28;20218;-70
2022/08/02 00:02:33;;;;;;;2.95;1.58;;;21.40;99.90;;;;;;4994620;28;20256;-70
2022/08/02 00:04:59;;;;;;;6.88;1.90;;;21.50;99.90;;;;;;4994755;28;20232;-70
2022/08/02 00:07:26;;;;;;;2.63;1.70;;;21.50;99.90;;;;;;4994779;28;20299;-71
2022/08/02 00:09:55;;;;;;;2.07;1.80;;;21.50;99.90;;;;;;4994557;28;20205;-71
2022/08/02 00:12:22;;;;;;;2.58;1.40;;;21.50;99.90;;;;;;4994343;28;20209;-71
2022/08/02 00:14:49;;;;;;;2.33;1.33;;;21.50;99.90;;;;;;4994659;28;20629;-70
2022/08/02 00:17:16;;;;;;;1.95;1.40;;;21.50;99.90;;;;;;4994820;28;20213;-71
2022/08/02 00:19:42;;;;;;;3.90;1.50;;;21.50;99.90;;;;;;5013854;28;20213;-71
2022/08/02 00:22:09;;;;;;;2.60;1.53;;;21.40;99.90;;;;;;5014403;28;20211;-72
2022/08/02 00:24:36;;;;;;;2.45;1.52;;;21.50;99.90;;;;;;5014287;28;20239;-72
2022/08/02 00:27:07;;;;;;;3.03;1.60;;;21.50;99.90;;;;;;5014161;28;20217;-72
2022/08/02 00:29:33;;;;;;;4.80;1.80;;;21.50;99.90;;;;;;5013948;28;20198;-71
2022/08/02 00:32:00;;;;;;;3.47;1.70;;;21.40;99.90;;;;;;5007703;28;21012;-71
2022/08/02 00:34:27;;;;;;;2.38;1.20;;;21.50;99.90;;;;;;4994188;28;20692;-71
2022/08/02 00:36:54;;;;;;;7.63;1.58;;;21.50;99.90;;;;;;4994536;28;20238;-71
2022/08/02 00:39:21;;;;;;;3.22;1.42;;;21.50;99.90;;;;;;4994208;28;20686;-71
2022/08/02 00:41:49;;;;;;;2.53;1.42;;;21.50;99.90;;;;;;4994292;28;20202;-71
2022/08/02 00:44:19;;;;;;;2.47;1.50;;;21.50;99.90;;;;;;4994601;28;20559;-71
2022/08/02 00:46:47;;;;;;;2.78;1.17;;;21.50;99.90;;;;;;4994228;28;20205;-71
2022/08/02 00:49:14;;;;;;;3.33;1.40;;;21.50;99.90;;;;;;4994678;28;20217;-70
2022/08/02 00:51:41;;;;;;;2.40;1.47;;;21.50;99.90;;;;;;4994739;28;20224;-70
2022/08/02 00:54:09;;;;;;;2.45;1.50;;;21.50;99.90;;;;;;5006053;28;20237;-70
2022/08/02 00:56:36;;;;;;;2.60;1.42;;;21.50;99.90;;;;;;5013530;28;20247;-70
2022/08/02 00:59:04;;;;;;;4.72;1.50;;;21.50;99.90;;;;;;5014217;28;20292;-70
2022/08/02 01:01:38;;;;;;;2.83;1.80;;;21.40;99.90;;;;;;4995564;28;20610;-70
2022/08/02 01:04:06;;;;;;;3.57;1.70;;;21.40;99.90;;;;;;4994415;28;20211;-70
2022/08/02 01:06:33;;;;;;;1.33;1.20;;;21.40;99.90;;;;;;4990125;28;20577;-70
2022/08/02 01:09:00;;;;;;;3.10;1.80;;;21.40;99.90;;;;;;4991101;28;20312;-70
2022/08/02 01:11:30;;;;;;;2.58;1.73;;;21.40;99.90;;;;;;4990696;28;20215;-71
2022/08/02 01:14:00;;;;;;;2.20;1.85;;;21.30;99.90;;;;;;4994794;28;20267;-71
2022/08/02 01:16:31;;;;;;;2.63;1.53;;;21.30;99.90;;;;;;5010492;28;20217;-71
2022/08/02 01:19:08;;;;;;;5.07;1.60;;;21.30;99.90;;;;;;5010766;28;20208;-70
2022/08/02 01:21:54;;;;;;;4.60;1.70;;;21.30;99.90;;;;;;5010097;28;20796;-70
2022/08/02 01:24:45;;;;;;;3.88;1.60;;;21.30;99.90;;;;;;5010395;28;20211;-68
2022/08/02 01:27:28;;;;;;;2.13;1.73;;;21.30;99.90;;;;;;5009757;28;20414;-68
2022/08/02 01:30:00;;;;;;;3.30;1.88;;;21.20;99.90;;;;;;5003156;28;20615;-69
2022/08/02 01:32:33;;;;;;;2.33;1.60;;;21.20;99.90;;;;;;5009795;28;20205;-68
2022/08/02 01:35:03;;;;;;;3.53;1.40;;;21.20;99.90;;;;;;5010335;28;20217;-70
2022/08/02 01:37:36;;;;;;;1.83;1.73;;;21.20;99.90;;;;;;5009429;28;20709;-69
2022/08/02 01:40:08;;;;;;;5.43;2.20;;;21.10;99.90;;;;;;5010067;28;20569;-70
2022/08/02 01:42:37;;;;;;;8.02;1.73;;;21.20;99.90;;;;;;5009811;28;20216;-69
2022/08/02 01:45:07;;;;;;;4.82;1.90;;;21.20;99.90;;;;;;5009897;28;20691;-69
2022/08/02 01:47:36;;;;;;;3.35;1.80;;;21.20;99.90;;;;;;5009976;28;20204;-69
2022/08/02 01:50:05;;;;;;;2.28;1.80;;;21.20;99.90;;;;;;5010111;28;20213;-69
2022/08/02 01:52:37;;;;;;;5.27;1.83;;;21.20;99.90;;;;;;5009809;28;20688;-68
2022/08/02 01:55:08;;;;;;;1.83;1.50;;;21.20;99.90;;;;;;5009468;28;20225;-68
2022/08/02 01:57:39;;;;;;;2.90;1.80;;;21.10;99.90;;;;;;4990678;28;20234;-68
2022/08/02 02:00:10;;;;;;;3.72;2.03;;;21.10;99.90;;;;;;4990620;28;20202;-68
2022/08/02 02:02:42;;;;;;;2.25;1.80;;;21.10;99.90;;;;;;4990018;28;20566;-68
2022/08/02 02:05:12;;;;;;;4.75;1.95;;;20.90;99.90;;;;;;4990009;28;20202;-68
2022/08/02 02:07:40;;;;;;;4.65;1.90;;;20.90;99.90;;;;;;4990071;28;20672;-68
2022/08/02 02:10:11;;;;;;;2.95;1.70;;;20.80;99.90;;;;;;4989857;28;20210;-69
2022/08/02 02:12:40;;;;;;;3.77;2.00;;;20.80;99.90;;;;;;4990088;28;20686;-69
2022/08/02 02:15:11;;;;;;;4.40;1.90;;;20.90;99.90;;;;;;4990005;28;20242;-69
2022/08/02 02:17:42;;;;;;;2.50;1.70;;;20.80;99.90;;;;;;4990213;28;20556;-69
2022/08/02 02:20:13;;;;;;;4.63;1.93;;;20.80;99.90;;;;;;4990019;28;20205;-69
2022/08/02 02:22:40;;;;;;;3.07;1.80;;;20.70;99.90;;;;;;4989750;28;20791;-68
2022/08/02 02:25:09;;;;;;;3.30;2.23;;;20.80;99.90;;;;;;5008151;28;20304;-69
2022/08/02 02:27:37;;;;;;;4.93;2.03;;;20.80;99.90;;;;;;4999675;28;20209;-69
2022/08/02 02:30:05;;;;;;;3.67;2.00;;;20.80;99.90;;;;;;4985860;28;20541;-68
2022/08/02 02:32:34;;;;;;;3.80;2.27;;;20.80;99.90;;;;;;4985426;28;20212;-69
2022/08/02 02:35:03;;;;;;;3.73;2.20;;;20.70;99.90;;;;;;4985781;28;20291;-68
2022/08/02 02:37:32;;;;;;;4.35;2.05;;;20.70;99.90;;;;;;4985482;28;20253;-68
2022/08/02 02:39:59;;;;;;;4.60;2.20;;;20.60;99.90;;;;;;4985305;28;20217;-69
2022/08/02 02:42:32;;;;;;;2.57;2.00;;;20.70;99.90;;;;;;4984958;28;20209;-68
2022/08/02 02:45:00;;;;;;;5.72;2.08;;;20.70;99.90;;;;;;4985774;28;20237;-68
2022/08/02 02:47:29;;;;;;;4.77;1.83;;;20.60;99.90;;;;;;4985530;28;20304;-68
2022/08/02 02:49:58;;;;;;;3.53;2.00;;;20.60;99.90;;;;;;4985539;28;20642;-68
2022/08/02 02:52:27;;;;;;;2.27;1.70;;;20.60;99.90;;;;;;4984991;28;20218;-68
2022/08/02 02:54:55;;;;;;;5.20;2.20;;;20.60;99.90;;;;;;5003064;28;20297;-68
2022/08/02 02:57:22;;;;;;;3.07;1.80;;;20.60;99.90;;;;;;4992735;28;20226;-68
2022/08/02 02:59:49;;;;;;;4.73;2.27;;;20.50;99.90;;;;;;4987282;28;20213;-67
2022/08/02 03:02:17;;;;;;;3.73;1.87;;;20.40;99.90;;;;;;4994452;28;20201;-68
2022/08/02 03:04:45;;;;;;;2.73;2.00;;;20.40;99.90;;;;;;5004875;28;20208;-69
2022/08/02 03:07:13;;;;;;;3.87;1.80;;;20.40;99.90;;;;;;5006281;28;20700;-69
2022/08/02 03:09:40;;;;;;;3.27;1.67;;;20.40;99.90;;;;;;5004657;28;20971;-69
2022/08/02 03:12:09;;;;;;;6.73;1.90;;;20.40;99.90;;;;;;5000185;28;20224;-69
2022/08/02 03:14:41;;;;;;;4.37;2.00;;;20.40;99.90;;;;;;5005546;28;20241;-69
2022/08/02 03:17:08;;;;;;;4.13;2.00;;;20.30;99.90;;;;;;5007492;28;20250;-69
2022/08/02 03:19:35;;;;;;;7.50;2.20;;;20.20;99.90;;;;;;5007627;28;20680;-69
2022/08/02 03:22:02;;;;;;;5.80;2.27;;;20.10;99.90;;;;;;5007757;28;20694;-69
2022/08/02 03:24:30;;;;;;;4.47;2.10;;;20.10;99.90;;;;;;5007325;28;20236;-69
2022/08/02 03:26:56;;;;;;;2.60;1.90;;;20.10;99.90;;;;;;5007808;28;20205;-69
2022/08/02 03:29:23;;;;;;;4.13;2.20;;;20.10;99.90;;;;;;5007210;28;20215;-69
2022/08/02 03:31:50;;;;;;;3.33;1.80;;;20.10;99.90;;;;;;5008227;28;20205;-69
2022/08/02 03:34:17;;;;;;;4.67;2.00;;;20.10;99.90;;;;;;5007611;28;20243;-69
2022/08/02 03:36:48;;;;;;;2.53;1.87;;;20.10;99.90;;;;;;5007702;28;20229;-69
2022/08/02 03:39:17;;;;;;;4.80;2.10;;;20.10;99.90;;;;;;5007940;28;20320;-69
2022/08/02 03:41:46;;;;;;;5.33;2.00;;;20.10;99.90;;;;;;5007756;28;20205;-69
2022/08/02 03:44:14;;;;;;;5.83;1.90;;;20.10;99.90;;;;;;5008114;28;20227;-69
2022/08/02 03:46:43;;;;;;;3.80;1.97;;;20.10;99.90;;;;;;5007826;28;20219;-69
2022/08/02 03:49:11;;;;;;;4.63;1.90;;;20.10;99.90;;;;;;5007911;28;20210;-70
2022/08/02 03:51:38;;;;;;;3.93;2.00;;;20.10;99.90;;;;;;5007853;28;20352;-69
2022/08/02 03:54:06;;;;;;;4.00;2.07;;;20.10;99.90;;;;;;5007776;28;20241;-69
2022/08/02 03:56:33;;;;;;;5.87;2.13;;;20.10;99.90;;;;;;5007247;28;20237;-69
2022/08/02 03:59:10;;;;;;;5.70;2.03;;;20.00;99.90;;;;;;5007651;28;20201;-69
2022/08/02 04:01:37;;;;;;;4.30;2.20;;;20.00;99.90;;;;;;5007509;28;20579;-69
2022/08/02 04:04:04;;;;;;;3.13;2.00;;;20.00;99.90;;;;;;5007886;28;20216;-69
2022/08/02 04:06:31;;;;;;;5.67;2.43;;;20.00;99.90;;;;;;5007762;28;20215;-69
2022/08/02 04:08:57;;;;;;;3.10;2.10;;;19.90;99.90;;;;;;5007591;28;20209;-69
2022/08/02 04:11:30;;;;;;;3.90;2.27;;;19.90;99.90;;;;;;5007350;28;20213;-69
2022/08/02 04:13:58;;;;;;;6.27;2.37;;;19.90;99.90;;;;;;5007596;28;20225;-69
2022/08/02 04:16:31;;;;;;;7.50;1.80;;;19.90;99.90;;;;;;5007536;28;20699;-69
2022/08/02 04:19:01;;;;;;;6.00;2.33;;;19.90;99.90;;;;;;5007683;28;20197;-70
2022/08/02 04:21:35;;;;;;;4.33;2.37;;;19.80;99.90;;;;;;5007927;28;20201;-69
2022/08/02 04:24:08;;;;;;;5.77;2.33;;;19.80;99.90;;;;;;5007696;28;20205;-69
2022/08/02 04:26:36;;;;;;;6.20;1.87;;;19.80;99.90;;;;;;5007277;28;20204;-69
2022/08/02 04:29:04;;;;;;;5.87;2.03;;;19.80;99.90;;;;;;5007246;28;20214;-69
2022/08/02 04:31:33;;;;;;;3.87;3.00;;;19.80;99.90;;;;;;5007339;28;20669;-69
2022/08/02 04:34:00;;;;;;;3.90;2.27;;;19.80;99.90;;;;;;5007393;28;20240;-69
2022/08/02 04:36:27;;;;;;;5.93;2.57;;;19.80;99.90;;;;;;5007386;28;20239;-69
2022/08/02 04:38:54;;;;;;;6.03;2.37;;;19.80;99.90;;;;;;5007534;28;20212;-69
2022/08/02 04:41:21;;;;;;;4.23;1.80;;;19.80;99.90;;;;;;5009035;28;20209;-69
2022/08/02 04:43:48;;;;;;;5.70;2.40;;;19.60;99.90;;;;;;5011140;28;20210;-69
2022/08/02 04:46:14;;;;;;;11.77;1.90;;;19.60;99.90;;;;;;5011334;28;20206;-69
2022/08/02 04:48:42;;;;;;;4.23;1.90;;;19.50;99.90;;;;;;5010849;28;20216;-69
2022/08/02 04:51:09;;;;;;;5.40;1.87;;;19.50;99.90;;;;;;5011175;28;20237;-69
2022/08/02 04:53:36;;;;;;;7.10;2.47;;;19.50;99.90;;;;;;5010207;28;20669;-70
2022/08/02 04:56:05;;;;;;;5.00;2.10;;;19.50;99.90;;;;;;5010332;28;20233;-69
2022/08/02 04:58:32;;;;;;;21.30;3.27;;;19.40;99.90;;;;;;5010754;28;20535;-69
2022/08/02 05:01:00;;;;;;;8.17;2.63;;;19.50;99.90;;;;;;5010603;28;20205;-69
2022/08/02 05:03:27;;;;;;;5.67;2.13;;;19.50;99.90;;;;;;5010283;28;20679;-69
2022/08/02 05:05:55;;;;;;;3.50;2.00;;;19.50;99.90;;;;;;5010663;28;20239;-69
2022/08/02 05:08:22;;;;;;;4.43;2.30;;;19.60;99.90;;;;;;5010180;28;20210;-69
2022/08/02 05:10:49;;;;;;;5.43;2.07;;;19.60;99.90;;;;;;5003368;28;20295;-69
2022/08/02 05:13:16;;;;;;;8.23;2.20;;;19.60;99.90;;;;;;5010293;28;20206;-69
2022/08/02 05:15:42;;;;;;;8.47;2.43;;;19.70;99.90;;;;;;5010285;28;20324;-69
2022/08/02 05:18:09;;;;;;;5.27;2.60;;;19.70;99.90;;;;;;5010072;28;20209;-69
2022/08/02 05:20:36;;;;;;;5.33;2.40;;;19.80;99.90;;;;;;5010294;28;20426;-69
2022/08/02 05:23:04;;;;;;;5.70;2.50;;;19.80;99.90;;;;;;5009994;28;20689;-69
2022/08/02 05:25:31;;;;;;;4.30;2.40;;;19.80;99.90;;;;;;5009997;28;20213;-69
2022/08/02 05:27:58;;;;;;;6.23;2.10;;;19.80;99.90;;;;;;5010268;28;20216;-69
2022/08/02 05:30:25;;;;;;;3.33;2.13;;;19.80;99.90;;;;;;5009759;28;20216;-69
2022/08/02 05:32:52;;;;;;;2.97;2.17;;;19.80;99.90;;;;;;5009940;28;20760;-69
2022/08/02 05:35:20;;;;;;;4.83;2.73;;;19.80;99.90;;;;;;5009933;28;20315;-69
2022/08/02 05:37:47;;;;;;;5.43;2.27;;;19.70;99.90;;;;;;5009718;28;20234;-69
2022/08/02 05:40:15;;;;;;;5.40;2.37;;;19.70;99.90;;;;;;5009839;28;20212;-69
2022/08/02 05:42:42;;;;;;;7.37;2.10;;;19.80;99.90;;;;;;5009638;28;20300;-69
2022/08/02 05:45:10;;;;;;;3.37;2.10;;;19.80;99.90;;;;;;5010219;28;20206;-69
2022/08/02 05:47:38;;;;;;;8.63;2.83;;;19.80;99.90;;;;;;5009623;28;20223;-69
2022/08/02 05:50:06;;;;;;;4.53;2.43;;;19.80;99.90;;;;;;5010025;28;20205;-69
2022/08/02 05:52:44;;;;;;;3.37;2.40;;;19.90;99.90;;;;;;5009192;28;20216;-69
2022/08/02 05:55:15;;;;;;;4.80;2.07;;;19.90;99.90;;;;;;5009415;28;20225;-69
2022/08/02 05:57:53;;;;;;;5.33;2.23;;;20.00;99.90;;;;;;5009225;28;20747;-69
2022/08/02 06:00:21;;;;;;;11.87;2.80;;;20.00;99.90;;;;;;5009619;28;20260;-69
2022/08/02 06:03:08;;;;;;;7.60;2.30;;;20.00;99.90;;;;;;5009726;28;20207;-70
2022/08/02 06:05:39;;;;;;;8.17;2.57;;;20.00;99.90;;;;;;5009325;28;20193;-69
2022/08/02 06:08:09;;;;;;;5.97;2.13;;;20.10;99.90;;;;;;5009312;28;20190;-69
2022/08/02 06:10:37;;;;;;;12.57;2.83;;;20.10;99.90;;;;;;5009268;28;20236;-70
2022/08/02 06:13:09;;;;;;;5.87;2.37;;;20.10;99.90;;;;;;5009431;28;20202;-69
2022/08/02 06:15:36;;;;;;;7.53;2.50;;;20.10;99.90;;;;;;5009531;28;20487;-69
2022/08/02 06:18:05;;;;;;;5.63;1.97;;;20.20;99.90;;;;;;5009545;28;20209;-69
2022/08/02 06:20:36;;;;;;;4.80;2.50;;;20.20;99.90;;;;;;5009569;28;20206;-70
2022/08/02 06:23:05;;;;;;;4.90;2.27;;;20.30;99.90;;;;;;5009290;28;20241;-69
2022/08/02 06:25:34;;;;;;;6.40;2.00;;;20.30;99.90;;;;;;5009173;28;20210;-69
2022/08/02 06:28:02;;;;;;;6.60;2.30;;;20.30;99.90;;;;;;5009194;28;20206;-69
2022/08/02 06:30:32;;;;;;;9.20;2.33;;;20.40;99.90;;;;;;5009091;28;20233;-69
2022/08/02 06:32:59;;;;;;;6.30;2.17;;;20.40;99.90;;;;;;5009366;28;20209;-69
2022/08/02 06:35:43;;;;;;;6.37;2.13;;;20.50;99.90;;;;;;5008856;28;20231;-69
2022/08/02 06:38:14;;;;;;;6.10;2.20;;;20.50;99.90;;;;;;5009035;28;20205;-69
2022/08/02 06:40:47;;;;;;;5.23;2.50;;;20.60;99.90;;;;;;5008692;28;20249;-69
2022/08/02 06:43:20;;;;;;;7.87;2.47;;;20.60;99.90;;;;;;5008947;28;20201;-69
2022/08/02 06:45:48;;;;;;;5.87;2.10;;;20.60;99.90;;;;;;5008563;28;20245;-69
2022/08/02 06:48:15;;;;;;;5.40;2.27;;;20.60;99.90;;;;;;5008396;28;20681;-69
2022/08/02 06:50:43;;;;;;;3.80;2.03;;;20.70;99.90;;;;;;5008585;28;20209;-69
2022/08/02 06:53:10;;;;;;;3.37;1.97;;;20.70;99.90;;;;;;5008457;28;20213;-70
2022/08/02 06:55:43;;;;;;;5.37;1.93;;;20.80;99.90;;;;;;5008140;28;20420;-69
2022/08/02 06:58:10;;;;;;;4.73;2.30;;;20.70;99.90;;;;;;5008129;28;20237;-69
2022/08/02 07:00:37;;;;;;;4.23;2.10;;;20.60;99.90;;;;;;5008398;28;20205;-69
2022/08/02 07:03:06;;;;;;;2.77;1.60;;;20.60;99.90;;;;;;5007691;28;20217;-69
2022/08/02 07:05:33;;;;;;;7.10;2.33;;;20.70;99.90;;;;;;5008336;28;20292;-70
2022/08/02 07:08:01;;;;;;;6.63;2.17;;;20.70;99.90;;;;;;5008310;28;20228;-69
2022/08/02 07:10:28;;;;;;;7.67;2.70;;;20.80;99.90;;;;;;5007582;28;20213;-69
2022/08/02 07:12:55;;;;;;;3.97;1.90;;;20.70;99.90;;;;;;5007832;28;20660;-69
2022/08/02 07:15:22;;;;;;;5.13;2.17;;;20.70;99.90;;;;;;5007837;28;20265;-69
2022/08/02 07:17:48;;;;;;;4.67;2.03;;;20.60;99.90;;;;;;5007606;28;20205;-69
2022/08/02 07:20:17;;;;;;;3.73;1.83;;;20.60;99.90;;;;;;5008238;28;20205;-69
2022/08/02 07:22:44;;;;;;;4.93;1.97;;;20.50;99.90;;;;;;5008299;28;20216;-69
2022/08/02 07:25:11;;;;;;;5.33;2.27;;;20.60;99.90;;;;;;5007819;28;20209;-69
2022/08/02 07:27:38;;;;;;;6.80;1.90;;;20.60;99.90;;;;;;5007589;28;20206;-69
2022/08/02 07:30:06;;;;;;;7.27;1.93;;;20.70;99.90;;;;;;5008254;28;20202;-69
2022/08/02 07:32:33;;;;;;;3.90;2.07;;;20.70;99.90;;;;;;5007661;28;20880;-69
2022/08/02 07:35:02;;;;;;;4.53;2.00;;;20.80;99.90;;;;;;5007905;28;20225;-69
2022/08/02 07:37:32;;;;;;;6.90;2.17;;;20.80;99.90;;;;;;5007842;28;20233;-69
2022/08/02 07:39:59;;;;;;;7.87;2.20;;;20.80;99.90;;;;;;5007873;28;20296;-69
2022/08/02 07:42:28;;;;;;;7.37;1.73;;;20.80;99.90;;;;;;5007257;28;20586;-69
2022/08/02 07:44:54;;;;;;;6.80;2.10;;;20.90;99.90;;;;;;5007943;28;20220;-69
2022/08/02 07:47:21;;;;;;;4.83;2.00;;;20.90;99.90;;;;;;5007651;28;20663;-69
2022/08/02 07:49:48;;;;;;;5.10;2.23;;;20.90;99.90;;;;;;5007830;28;20213;-69
2022/08/02 07:52:15;;;;;;;2.20;1.40;;;21.00;99.90;;;;;;5008058;28;20221;-69
2022/08/02 07:54:43;;;;;;;5.53;1.80;;;21.00;99.90;;;;;;5007163;28;20213;-69
2022/08/02 07:57:10;;;;;;;4.80;1.83;;;21.10;99.90;;;;;;5007098;28;20237;-69
2022/08/02 07:59:37;;;;;;;5.60;2.27;;;21.20;99.90;;;;;;5007398;28;20206;-69
2022/08/02 08:02:03;;;;;;;18.67;2.63;;;21.30;99.90;;;;;;5007930;28;20287;-69
2022/08/02 08:04:30;;;;;;;4.67;1.83;;;21.40;99.90;;;;;;5007540;28;20205;-69
2022/08/02 08:06:58;;;;;;;3.47;2.20;;;21.40;99.90;;;;;;5007429;28;20743;-69
2022/08/02 08:09:24;;;;;;;3.17;1.95;;;21.40;99.90;;;;;;5007114;28;20217;-69
2022/08/02 08:11:53;;;;;;;4.23;1.70;;;21.40;99.90;;;;;;5007464;28;20212;-69
2022/08/02 08:14:19;;;;;;;3.38;1.63;;;21.50;99.90;;;;;;5007945;28;20205;-69
2022/08/02 08:16:46;;;;;;;3.70;1.30;;;21.60;99.90;;;;;;5011334;28;20237;-69
2022/08/02 08:19:13;;;;;;;6.00;1.80;;;21.60;99.90;;;;;;5011367;28;20213;-70
2022/08/02 08:21:40;;;;;;;6.30;2.30;;;21.60;99.90;;;;;;5011758;28;20293;-69
2022/08/02 08:24:07;;;;;;;3.58;1.85;;;21.60;99.90;;;;;;5011319;28;20226;-70
2022/08/02 08:26:34;;;;;;;4.40;2.58;;;21.60;99.90;;;;;;5011124;28;20617;-69
2022/08/02 08:29:02;;;;;;;4.20;1.92;;;21.70;99.90;;;;;;5011411;28;20206;-69
2022/08/02 08:31:29;;;;;;;6.90;1.50;;;21.80;99.90;;;;;;5011275;28;20213;-69
2022/08/02 08:33:55;;;;;;;2.97;1.70;;;21.90;99.90;;;;;;5011026;28;20641;-70
2022/08/02 08:36:22;;;;;;;4.28;1.73;;;21.90;99.90;;;;;;5010814;28;20697;-69
2022/08/02 08:38:50;;;;;;;3.05;1.65;;;22.00;99.90;;;;;;5010828;28;20213;-69
2022/08/02 08:41:17;;;;;;;2.13;1.33;;;22.00;99.90;;;;;;5010992;28;20296;-69
2022/08/02 08:43:44;;;;;;;4.43;1.33;;;22.10;99.90;;;;;;5011115;28;20209;-70
2022/08/02 08:46:30;;;;;;;6.63;1.70;;;22.10;99.90;;;;;;5011218;28;20202;-69
2022/08/02 08:49:01;;;;;;;3.92;1.73;;;22.10;99.90;;;;;;5010956;28;20221;-69
2022/08/02 08:51:35;;;;;;;3.70;1.67;;;22.20;99.90;;;;;;5010956;28;20204;-68
2022/08/02 08:54:03;;;;;;;2.08;1.52;;;22.30;99.90;;;;;;5010759;28;20205;-68
2022/08/02 08:56:33;;;;;;;3.70;1.42;;;22.30;99.90;;;;;;5010149;28;20244;-68
2022/08/02 08:59:00;;;;;;;2.22;1.60;;;22.40;99.90;;;;;;5010621;28;20283;-68
2022/08/02 09:01:29;;;;;;;2.70;1.55;;;22.50;99.90;;;;;;5010615;28;20209;-68
2022/08/02 09:03:56;;;;;;;4.20;1.33;;;22.60;99.90;;;;;;5010653;28;20645;-68
2022/08/02 09:06:23;;;;;;;4.30;1.70;;;22.60;99.80;;;;;;5010646;28;20213;-68
2022/08/02 09:08:50;;;;;;;3.67;1.67;;;22.60;99.80;;;;;;5010366;28;20819;-68
2022/08/02 09:11:19;;;;;;;5.40;1.70;;;22.70;99.90;;;;;;5010557;28;20209;-68
2022/08/02 09:13:50;;;;;;;2.72;1.63;;;22.80;99.70;;;;;;5010304;28;20297;-68
2022/08/02 09:16:29;;;;;;;2.00;1.58;;;22.80;99.80;;;;;;5010377;28;20229;-68
2022/08/02 09:18:56;;;;;;;4.13;1.60;;;22.90;99.90;;;;;;5010352;28;20286;-68
2022/08/02 09:21:23;;;;;;;2.22;1.50;;;23.00;99.50;;;;;;5010250;28;20237;-68
2022/08/02 09:23:51;;;;;;;3.33;1.70;;;23.00;99.20;;;;;;5010018;28;20733;-68
2022/08/02 09:26:19;;;;;;;2.70;1.45;;;22.90;99.40;;;;;;5008942;28;20304;-68
2022/08/02 09:28:50;;;;;;;2.30;1.45;;;22.90;99.30;;;;;;5010104;28;20578;-67
2022/08/02 09:31:18;;;;;;;3.63;1.52;;;23.00;99.60;;;;;;5010194;28;20248;-68
2022/08/02 09:33:52;;;;;;;6.22;1.88;;;22.90;99.10;;;;;;5009832;28;20211;-68
2022/08/02 09:36:19;;;;;;;1.80;1.40;;;22.90;99.40;;;;;;5009568;28;20576;-68
2022/08/02 09:38:53;;;;;;;3.25;1.55;;;23.00;99.30;;;;;;5009816;28;20201;-68
2022/08/02 09:41:21;;;;;;;4.28;1.42;;;23.00;99.20;;;;;;5009614;28;20563;-68
2022/08/02 09:43:48;;;;;;;3.80;1.73;;;23.00;99.40;;;;;;5009494;28;20687;-68
2022/08/02 09:46:18;;;;;;;3.60;1.40;;;23.10;99.30;;;;;;5009558;28;20767;-68
2022/08/02 09:48:51;;;;;;;3.45;1.55;;;23.10;98.90;;;;;;5009831;28;20210;-68
2022/08/02 09:51:20;;;;;;;2.85;1.60;;;23.00;99.10;;;;;;5009714;28;20209;-68
2022/08/02 09:53:48;;;;;;;6.35;2.00;;;23.10;99.20;;;;;;5009804;28;20205;-68
2022/08/02 09:56:16;;;;;;;2.75;1.48;;;23.20;99.40;;;;;;5009060;28;20241;-68
2022/08/02 09:58:44;;;;;;;4.15;1.70;;;23.30;99.30;;;;;;5009597;28;20273;-68
2022/08/02 10:01:11;;;;;;;3.58;1.75;;;23.40;98.90;;;;;;5009583;28;20256;-68
2022/08/02 10:03:46;;;;;;;3.35;1.63;;;23.40;98.70;;;;;;5009445;28;20527;-68
2022/08/02 10:06:15;;;;;;;3.03;1.50;;;23.50;99.10;;;;;;5009439;28;20195;-68
2022/08/02 10:08:42;;;;;;;4.82;1.50;;;23.60;98.80;;;;;;5009244;28;20303;-68
2022/08/02 10:11:08;;;;;;;4.80;1.85;;;23.70;98.70;;;;;;5009363;28;20220;-68
2022/08/02 10:13:36;;;;;;;3.40;1.70;;;23.80;98.40;;;;;;5009375;28;20599;-68
2022/08/02 10:16:06;;;;;;;4.63;1.80;;;23.80;98.20;;;;;;5009454;28;20229;-69
2022/08/02 10:18:34;;;;;;;4.05;1.60;;;23.90;98.30;;;;;;5009256;28;20221;-68
2022/08/02 10:21:05;;;;;;;3.50;1.70;;;23.90;98.00;;;;;;5009564;28;20611;-68
2022/08/02 10:23:36;;;;;;;1.80;1.50;;;24.00;98.20;;;;;;5008921;28;20233;-68
2022/08/02 10:26:06;;;;;;;4.30;2.00;;;24.00;98.10;;;;;;5008928;28;20657;-69
2022/08/02 10:28:33;;;;;;;2.13;1.70;;;24.10;98.00;;;;;;5009142;28;20307;-68
2022/08/02 10:31:08;;;;;;;2.67;1.65;;;24.20;97.60;;;;;;5009198;28;20213;-69
2022/08/02 10:33:38;;;;;;;1.95;1.60;;;24.30;97.70;;;;;;5008711;28;20193;-69
2022/08/02 10:36:09;;;;;;;3.30;1.65;;;24.40;97.70;;;;;;5008805;28;20233;-69
2022/08/02 10:38:37;;;;;;;4.85;1.73;;;24.50;97.70;;;;;;5008630;28;20205;-69
2022/08/02 10:41:07;;;;;;;5.10;1.77;;;24.60;97.80;;;;;;5008952;28;20662;-69
2022/08/02 10:43:43;;;;;;;6.18;1.95;;;24.60;97.30;;;;;;5008514;28;20765;-69
2022/08/02 10:46:24;;;;;;;4.00;1.73;;;24.50;97.40;;;;;;5008676;28;20235;-68
2022/08/02 10:49:14;;;;;;;3.50;1.90;;;24.40;97.50;;;;;;5008741;28;20688;-69
2022/08/02 10:52:05;;;;;;;7.03;1.67;;;24.40;97.00;;;;;;5008587;28;20190;-69
2022/08/02 10:54:36;;;;;;;2.97;1.67;;;24.20;97.40;;;;;;5008525;28;20216;-69
2022/08/02 10:57:03;;;;;;;3.05;1.60;;;24.10;97.80;;;;;;5008095;28;20245;-68
2022/08/02 10:59:31;;;;;;;4.57;1.63;;;24.30;98.00;;;;;;5008061;28;20220;-69
2022/08/02 11:02:03;;;;;;;2.85;1.65;;;24.40;97.60;;;;;;5008495;28;20217;-69
2022/08/02 11:04:32;;;;;;;3.65;1.60;;;24.50;97.40;;;;;;5008238;28;20233;-68
2022/08/02 11:07:16;;;;;;;1.83;1.40;;;24.60;96.70;;;;;;5008202;28;20818;-69
2022/08/02 11:09:45;;;;;;;1.98;1.52;;;24.80;96.90;;;;;;5008495;28;20209;-69
2022/08/02 11:12:14;;;;;;;4.80;1.48;;;24.80;96.70;;;;;;5008279;28;20248;-69
2022/08/02 11:14:42;;;;;;;2.92;1.60;;;24.90;97.00;;;;;;5008378;28;20217;-69
2022/08/02 11:17:12;;;;;;;1.63;1.27;;;25.00;97.30;;;;;;5008405;28;20237;-69
2022/08/02 11:20:16;;;;;;;1.55;1.40;;;25.10;96.00;;;;;;5008080;28;20214;-69
2022/08/02 11:22:44;;;;;;;1.85;1.40;;;25.30;95.70;;;;;;5008284;28;20301;-69
2022/08/02 11:25:35;;;;;;;2.80;1.10;;;25.50;96.20;;;;;;4988384;28;20206;-69
2022/08/02 11:28:12;;;;;;;4.70;1.58;;;25.60;95.10;;;;;;4988732;28;20285;-69
2022/08/02 11:30:39;;;;;;;3.25;1.55;;;25.80;95.00;;;;;;4988606;28;20213;-69
2022/08/02 11:33:06;;;;;;;5.15;1.60;;;25.80;96.30;;;;;;4988168;28;20265;-69
2022/08/02 11:35:38;;;;;;;2.25;1.30;;;26.10;96.50;;;;;;4988423;28;20230;-69
2022/08/02 11:38:16;;;;;;;1.92;1.55;;;26.20;96.30;;;;;;4988623;28;20263;-69
2022/08/02 11:40:45;;;;;;;1.45;1.35;;;26.30;95.30;;;;;;4988077;28;20210;-69
2022/08/02 11:43:19;;;;;;;2.30;1.35;;;26.30;94.70;;;;;;4988192;28;20301;-69
2022/08/02 11:45:47;;;;;;;3.72;1.45;;;26.20;94.70;;;;;;4988335;28;20235;-69
2022/08/02 11:48:13;;;;;;;2.13;1.80;;;26.30;94.60;;;;;;4988083;28;20217;-69
2022/08/02 11:50:40;;;;;;;1.92;1.58;;;26.40;95.10;;;;;;4987359;28;20213;-69
2022/08/02 11:53:15;;;;;;;1.38;1.13;;;26.50;94.90;;;;;;4991411;28;20223;-69
2022/08/02 11:55:41;;;;;;;2.35;1.48;;;26.50;94.50;;;;;;5007157;28;20215;-69
2022/08/02 11:58:11;;;;;;;3.53;1.40;;;26.70;94.50;;;;;;5007219;28;20247;-69
2022/08/02 12:00:39;;;;;;;4.10;1.52;;;26.80;94.30;;;;;;5007593;28;20232;-69
2022/08/02 12:03:08;;;;;;;3.53;1.45;;;27.00;93.70;;;;;;5007590;28;20687;-69
2022/08/02 12:05:35;;;;;;;3.13;1.48;;;27.10;93.50;;;;;;5007329;28;20201;-69
2022/08/02 12:08:06;;;;;;;1.60;1.50;;;27.20;93.40;;;;;;5007855;28;20561;-69
2022/08/02 12:10:33;;;;;;;2.13;1.45;;;27.30;93.30;;;;;;5007349;28;20194;-70
2022/08/02 12:13:00;;;;;;;2.05;1.30;;;27.50;93.30;;;;;;5007497;28;20212;-69
2022/08/02 12:15:35;;;;;;;2.20;1.65;;;27.70;93.00;;;;;;5007402;28;20579;-70
2022/08/02 12:20:47;;;;;;;2.65;1.60;;;27.80;92.00;;;;;;4976890;28;20202;-69
2022/08/02 12:23:14;;;;;;;3.55;1.35;;;27.90;92.40;;;;;;5007740;28;20673;-69
2022/08/02 12:25:41;;;;;;;2.53;1.70;;;28.10;92.30;;;;;;5006982;28;20231;-69
2022/08/02 12:28:19;;;;;;;2.63;1.55;;;28.10;91.70;;;;;;5007621;28;20206;-70
2022/08/02 12:30:52;;;;;;;3.33;1.88;;;28.30;91.90;;;;;;5007545;28;20288;-70
2022/08/02 12:33:19;;;;;;;3.95;1.60;;;28.50;91.30;;;;;;5007155;28;20233;-70
2022/08/02 12:35:46;;;;;;;2.30;1.73;;;28.60;90.60;;;;;;5007545;28;20236;-69
2022/08/02 12:38:13;;;;;;;3.03;1.58;;;28.60;89.20;;;;;;5007005;28;20696;-69
2022/08/02 12:40:41;;;;;;;1.70;1.25;;;28.60;89.20;;;;;;5006934;28;20296;-69
2022/08/02 12:43:17;;;;;;;3.10;1.80;;;28.60;90.20;;;;;;5007552;28;20221;-69
2022/08/02 12:45:53;;;;;;;2.70;1.75;;;28.70;90.40;;;;;;5007658;28;20200;-69
2022/08/02 12:48:34;;;;;;;4.88;1.27;;;28.80;90.20;;;;;;5007478;28;20224;-69
2022/08/02 12:51:19;;;;;;;2.35;1.55;;;29.00;89.80;;;;;;5007301;28;20648;-69
2022/08/02 12:53:46;;;;;;;1.75;1.33;;;29.10;88.60;;;;;;5007569;28;20271;-69
2022/08/02 12:56:13;;;;;;;4.95;1.63;;;29.30;89.00;;;;;;5007127;28;20245;-70
2022/08/02 12:58:48;;;;;;;1.95;1.70;;;29.40;88.30;;;;;;5006936;28;20226;-69